Details for Air Canada Rouge at CYUL




Go Back


Latest METAR
Local Time

CYUL 250400Z 22003KT 15SM FEW240 17/08 A2986 RMK CI1 CI TR SLP115 DENSITY ALT 500FT

25/05/2018, 01:02:45

Description
Results
Air Canada Rouge Logo
Number of Pilots based at CYUL
1 Pilots Based here
Number of Air Canada Rouge Flights Departed from CYUL
0 Flights Departed
Number of Air Canada Rouge Flights Arrived at CYUL
1 Flights Arrived
Number of Air Canada Rouge Schedules Departing from CYUL
48 Schedules
Number of Air Canada Rouge Schedules Arriving at CYUL
48 Schedules
Number of Air Canada Rouge Schedules Departing from CYUL availible today
22 Schedules Today
Number of Air Canada Rouge Schedules Arriving at CYUL availible today
21 Schedules Today
Average Landing Rate at CYUL
-186 fpm
Air Canada Rouge Average Landing Rate at CYUL
-643 fpm
Total Fuel Purchased at CYUL by Air Canada Rouge
0.00 kgs / 0.00 lbs

Pilots Based at CYUL


Pilot ID
Pilot Name
Pilot Rank
No. of Flights
No. of Flying Hours
Pierre Castonguay
3
3.38
Content